sensor_id;sensor_type;location;lat;lon;timestamp;P1;durP1;ratioP1;P2;durP2;ratioP2
12591;SDS011;6361;52.120;5.108;2023-04-25T00:00:29;23.70;;;5.07;;
12591;SDS011;6361;52.120;5.108;2023-04-25T00:02:55;21.58;;;4.20;;
12591;SDS011;6361;52.120;5.108;2023-04-25T00:05:25;17.33;;;4.13;;
12591;SDS011;6361;52.120;5.108;2023-04-25T00:07:54;18.67;;;4.18;;
12591;SDS011;6361;52.120;5.108;2023-04-25T00:10:20;16.70;;;3.53;;
12591;SDS011;6361;52.120;5.108;2023-04-25T00:12:45;17.63;;;3.90;;
12591;SDS011;6361;52.120;5.108;2023-04-25T00:15:11;13.73;;;3.47;;
12591;SDS011;6361;52.120;5.108;2023-04-25T00:17:36;10.75;;;2.83;;
12591;SDS011;6361;52.120;5.108;2023-04-25T00:20:03;13.93;;;3.00;;
12591;SDS011;6361;52.120;5.108;2023-04-25T00:22:34;20.02;;;3.70;;
12591;SDS011;6361;52.120;5.108;2023-04-25T00:24:59;11.23;;;3.10;;
12591;SDS011;6361;52.120;5.108;2023-04-25T00:27:25;13.43;;;3.20;;
12591;SDS011;6361;52.120;5.108;2023-04-25T00:29:51;12.43;;;2.67;;
12591;SDS011;6361;52.120;5.108;2023-04-25T00:32:16;13.65;;;2.92;;
12591;SDS011;6361;52.120;5.108;2023-04-25T00:34:42;12.98;;;3.13;;
12591;SDS011;6361;52.120;5.108;2023-04-25T00:37:07;14.63;;;3.20;;
12591;SDS011;6361;52.120;5.108;2023-04-25T00:39:32;13.32;;;3.20;;
12591;SDS011;6361;52.120;5.108;2023-04-25T00:41:58;17.17;;;3.80;;
12591;SDS011;6361;52.120;5.108;2023-04-25T00:44:24;13.80;;;3.63;;
12591;SDS011;6361;52.120;5.108;2023-04-25T00:46:50;17.33;;;3.45;;
12591;SDS011;6361;52.120;5.108;2023-04-25T00:49:15;17.65;;;3.35;;
12591;SDS011;6361;52.120;5.108;2023-04-25T00:51:42;13.88;;;3.28;;
12591;SDS011;6361;52.120;5.108;2023-04-25T00:54:10;14.32;;;3.50;;
12591;SDS011;6361;52.120;5.108;2023-04-25T00:56:36;16.65;;;3.78;;
12591;SDS011;6361;52.120;5.108;2023-04-25T00:59:02;15.45;;;3.10;;
12591;SDS011;6361;52.120;5.108;2023-04-25T01:01:28;14.40;;;3.63;;
12591;SDS011;6361;52.120;5.108;2023-04-25T01:03:53;18.52;;;4.13;;
12591;SDS011;6361;52.120;5.108;2023-04-25T01:06:19;13.15;;;3.70;;
12591;SDS011;6361;52.120;5.108;2023-04-25T01:08:45;14.07;;;3.60;;
12591;SDS011;6361;52.120;5.108;2023-04-25T01:11:11;14.98;;;3.80;;
12591;SDS011;6361;52.120;5.108;2023-04-25T01:13:36;17.38;;;3.65;;
12591;SDS011;6361;52.120;5.108;2023-04-25T01:16:02;15.45;;;3.58;;
12591;SDS011;6361;52.120;5.108;2023-04-25T01:18:27;11.35;;;3.78;;
12591;SDS011;6361;52.120;5.108;2023-04-25T01:20:55;17.20;;;3.97;;
12591;SDS011;6361;52.120;5.108;2023-04-25T01:23:22;14.68;;;3.67;;
12591;SDS011;6361;52.120;5.108;2023-04-25T01:25:48;17.15;;;3.75;;
12591;SDS011;6361;52.120;5.108;2023-04-25T01:28:14;17.17;;;3.20;;
12591;SDS011;6361;52.120;5.108;2023-04-25T01:30:40;19.40;;;3.80;;
12591;SDS011;6361;52.120;5.108;2023-04-25T01:33:05;19.17;;;4.07;;
12591;SDS011;6361;52.120;5.108;2023-04-25T01:35:32;16.20;;;3.67;;
12591;SDS011;6361;52.120;5.108;2023-04-25T01:37:58;14.25;;;4.53;;
12591;SDS011;6361;52.120;5.108;2023-04-25T01:40:24;16.80;;;3.95;;
12591;SDS011;6361;52.120;5.108;2023-04-25T01:42:50;15.95;;;3.80;;
12591;SDS011;6361;52.120;5.108;2023-04-25T01:45:16;12.88;;;3.55;;
12591;SDS011;6361;52.120;5.108;2023-04-25T01:47:42;19.10;;;4.43;;
12591;SDS011;6361;52.120;5.108;2023-04-25T01:50:08;20.40;;;4.07;;
12591;SDS011;6361;52.120;5.108;2023-04-25T01:52:35;16.73;;;4.45;;
12591;SDS011;6361;52.120;5.108;2023-04-25T01:55:01;15.25;;;3.47;;
12591;SDS011;6361;52.120;5.108;2023-04-25T01:57:27;18.15;;;3.92;;
12591;SDS011;6361;52.120;5.108;2023-04-25T01:59:54;16.38;;;3.67;;
12591;SDS011;6361;52.120;5.108;2023-04-25T02:02:22;12.90;;;3.40;;
12591;SDS011;6361;52.120;5.108;2023-04-25T02:04:47;15.60;;;4.03;;
12591;SDS011;6361;52.120;5.108;2023-04-25T02:07:13;13.20;;;3.60;;
12591;SDS011;6361;52.120;5.108;2023-04-25T02:09:38;19.65;;;3.65;;
12591;SDS011;6361;52.120;5.108;2023-04-25T02:12:03;15.95;;;3.88;;
12591;SDS011;6361;52.120;5.108;2023-04-25T02:14:29;19.85;;;4.00;;
12591;SDS011;6361;52.120;5.108;2023-04-25T02:16:54;14.60;;;3.78;;
12591;SDS011;6361;52.120;5.108;2023-04-25T02:19:20;17.42;;;3.70;;
12591;SDS011;6361;52.120;5.108;2023-04-25T02:21:45;16.70;;;3.92;;
12591;SDS011;6361;52.120;5.108;2023-04-25T02:24:11;15.80;;;3.50;;
12591;SDS011;6361;52.120;5.108;2023-04-25T02:26:36;20.35;;;3.83;;
12591;SDS011;6361;52.120;5.108;2023-04-25T02:29:02;13.13;;;3.38;;
12591;SDS011;6361;52.120;5.108;2023-04-25T02:31:27;14.23;;;3.70;;
12591;SDS011;6361;52.120;5.108;2023-04-25T02:33:53;18.40;;;4.05;;
12591;SDS011;6361;52.120;5.108;2023-04-25T02:36:19;23.15;;;3.78;;
12591;SDS011;6361;52.120;5.108;2023-04-25T02:38:44;13.98;;;3.45;;
12591;SDS011;6361;52.120;5.108;2023-04-25T02:41:09;15.48;;;3.80;;
12591;SDS011;6361;52.120;5.108;2023-04-25T02:43:35;15.30;;;3.75;;
12591;SDS011;6361;52.120;5.108;2023-04-25T02:46:00;12.55;;;3.40;;
12591;SDS011;6361;52.120;5.108;2023-04-25T02:48:25;16.58;;;3.55;;
12591;SDS011;6361;52.120;5.108;2023-04-25T02:50:51;10.60;;;3.65;;
12591;SDS011;6361;52.120;5.108;2023-04-25T02:53:16;18.23;;;4.00;;
12591;SDS011;6361;52.120;5.108;2023-04-25T02:55:41;14.63;;;3.38;;
12591;SDS011;6361;52.120;5.108;2023-04-25T02:58:07;15.95;;;3.45;;
12591;SDS011;6361;52.120;5.108;2023-04-25T03:00:32;17.95;;;3.58;;
12591;SDS011;6361;52.120;5.108;2023-04-25T03:02:58;12.70;;;3.53;;
12591;SDS011;6361;52.120;5.108;2023-04-25T03:05:23;15.77;;;3.70;;
12591;SDS011;6361;52.120;5.108;2023-04-25T03:07:48;15.65;;;3.40;;
12591;SDS011;6361;52.120;5.108;2023-04-25T03:10:14;13.07;;;3.63;;
12591;SDS011;6361;52.120;5.108;2023-04-25T03:12:39;18.30;;;4.30;;
12591;SDS011;6361;52.120;5.108;2023-04-25T03:15:05;13.77;;;3.65;;
12591;SDS011;6361;52.120;5.108;2023-04-25T03:17:30;18.95;;;3.55;;
12591;SDS011;6361;52.120;5.108;2023-04-25T03:19:56;16.98;;;2.85;;
12591;SDS011;6361;52.120;5.108;2023-04-25T03:22:22;13.48;;;2.30;;
12591;SDS011;6361;52.120;5.108;2023-04-25T03:24:47;14.90;;;2.55;;
12591;SDS011;6361;52.120;5.108;2023-04-25T03:27:15;10.98;;;2.10;;
12591;SDS011;6361;52.120;5.108;2023-04-25T03:29:41;6.72;;;1.98;;
12591;SDS011;6361;52.120;5.108;2023-04-25T03:32:06;7.32;;;2.55;;
12591;SDS011;6361;52.120;5.108;2023-04-25T03:34:31;9.10;;;2.25;;
12591;SDS011;6361;52.120;5.108;2023-04-25T03:36:57;8.15;;;1.98;;
12591;SDS011;6361;52.120;5.108;2023-04-25T03:39:22;5.93;;;2.10;;
12591;SDS011;6361;52.120;5.108;2023-04-25T03:41:48;10.20;;;2.50;;
12591;SDS011;6361;52.120;5.108;2023-04-25T03:44:13;6.35;;;2.08;;
12591;SDS011;6361;52.120;5.108;2023-04-25T03:46:39;11.63;;;2.17;;
12591;SDS011;6361;52.120;5.108;2023-04-25T03:49:04;11.57;;;2.35;;
12591;SDS011;6361;52.120;5.108;2023-04-25T03:51:29;9.20;;;2.17;;
12591;SDS011;6361;52.120;5.108;2023-04-25T03:53:55;9.45;;;2.00;;
12591;SDS011;6361;52.120;5.108;2023-04-25T03:56:21;8.15;;;2.17;;
12591;SDS011;6361;52.120;5.108;2023-04-25T03:58:46;8.02;;;2.20;;
12591;SDS011;6361;52.120;5.108;2023-04-25T04:01:12;7.47;;;1.85;;
12591;SDS011;6361;52.120;5.108;2023-04-25T04:03:37;8.52;;;1.98;;
12591;SDS011;6361;52.120;5.108;2023-04-25T04:06:03;11.07;;;2.15;;
12591;SDS011;6361;52.120;5.108;2023-04-25T04:08:30;11.20;;;2.25;;
12591;SDS011;6361;52.120;5.108;2023-04-25T04:10:56;7.43;;;1.95;;
12591;SDS011;6361;52.120;5.108;2023-04-25T04:13:22;8.80;;;2.40;;
12591;SDS011;6361;52.120;5.108;2023-04-25T04:15:48;10.02;;;2.03;;
12591;SDS011;6361;52.120;5.108;2023-04-25T04:18:13;7.72;;;1.85;;
12591;SDS011;6361;52.120;5.108;2023-04-25T04:20:38;7.53;;;1.63;;
12591;SDS011;6361;52.120;5.108;2023-04-25T04:23:04;8.70;;;2.20;;
12591;SDS011;6361;52.120;5.108;2023-04-25T04:25:30;8.15;;;2.13;;
12591;SDS011;6361;52.120;5.108;2023-04-25T04:27:55;13.77;;;1.90;;
12591;SDS011;6361;52.120;5.108;2023-04-25T04:30:24;6.68;;;1.95;;
12591;SDS011;6361;52.120;5.108;2023-04-25T04:32:50;6.97;;;1.88;;
12591;SDS011;6361;52.120;5.108;2023-04-25T04:35:16;9.35;;;1.85;;
12591;SDS011;6361;52.120;5.108;2023-04-25T04:37:41;7.97;;;2.03;;
12591;SDS011;6361;52.120;5.108;2023-04-25T04:40:08;11.95;;;2.10;;
12591;SDS011;6361;52.120;5.108;2023-04-25T04:42:34;11.55;;;2.08;;
12591;SDS011;6361;52.120;5.108;2023-04-25T04:45:01;9.23;;;2.40;;
12591;SDS011;6361;52.120;5.108;2023-04-25T04:47:27;11.88;;;2.03;;
12591;SDS011;6361;52.120;5.108;2023-04-25T04:49:56;9.60;;;2.55;;
12591;SDS011;6361;52.120;5.108;2023-04-25T04:52:23;11.27;;;2.05;;
12591;SDS011;6361;52.120;5.108;2023-04-25T04:54:49;9.18;;;2.20;;
12591;SDS011;6361;52.120;5.108;2023-04-25T04:57:14;12.95;;;2.47;;
12591;SDS011;6361;52.120;5.108;2023-04-25T04:59:41;7.50;;;1.92;;
12591;SDS011;6361;52.120;5.108;2023-04-25T05:02:06;11.43;;;2.25;;
12591;SDS011;6361;52.120;5.108;2023-04-25T05:04:32;9.75;;;2.33;;
12591;SDS011;6361;52.120;5.108;2023-04-25T05:06:57;10.10;;;2.47;;
12591;SDS011;6361;52.120;5.108;2023-04-25T05:09:22;8.60;;;2.05;;
12591;SDS011;6361;52.120;5.108;2023-04-25T05:11:50;12.75;;;2.60;;
12591;SDS011;6361;52.120;5.108;2023-04-25T05:14:16;8.48;;;2.20;;
12591;SDS011;6361;52.120;5.108;2023-04-25T05:16:42;8.60;;;2.25;;
12591;SDS011;6361;52.120;5.108;2023-04-25T05:19:08;11.13;;;1.90;;
12591;SDS011;6361;52.120;5.108;2023-04-25T05:21:33;11.85;;;2.67;;
12591;SDS011;6361;52.120;5.108;2023-04-25T05:23:59;12.10;;;2.60;;
12591;SDS011;6361;52.120;5.108;2023-04-25T05:26:25;12.13;;;2.40;;
12591;SDS011;6361;52.120;5.108;2023-04-25T05:28:50;9.43;;;2.05;;
12591;SDS011;6361;52.120;5.108;2023-04-25T05:31:16;5.88;;;2.10;;
12591;SDS011;6361;52.120;5.108;2023-04-25T05:33:41;10.40;;;2.08;;
12591;SDS011;6361;52.120;5.108;2023-04-25T05:36:07;7.93;;;2.15;;
12591;SDS011;6361;52.120;5.108;2023-04-25T05:38:35;12.88;;;2.28;;
12591;SDS011;6361;52.120;5.108;2023-04-25T05:41:00;11.48;;;2.33;;
12591;SDS011;6361;52.120;5.108;2023-04-25T05:43:26;6.35;;;2.03;;
12591;SDS011;6361;52.120;5.108;2023-04-25T05:45:51;7.82;;;2.03;;
12591;SDS011;6361;52.120;5.108;2023-04-25T05:48:17;10.50;;;2.10;;
12591;SDS011;6361;52.120;5.108;2023-04-25T05:50:42;7.05;;;2.53;;
12591;SDS011;6361;52.120;5.108;2023-04-25T05:53:08;6.68;;;1.90;;
12591;SDS011;6361;52.120;5.108;2023-04-25T05:55:34;7.32;;;1.92;;
12591;SDS011;6361;52.120;5.108;2023-04-25T05:57:59;9.18;;;2.00;;
12591;SDS011;6361;52.120;5.108;2023-04-25T06:00:25;12.10;;;2.20;;
12591;SDS011;6361;52.120;5.108;2023-04-25T06:02:52;13.52;;;1.92;;
12591;SDS011;6361;52.120;5.108;2023-04-25T06:05:17;23.13;;;3.55;;
12591;SDS011;6361;52.120;5.108;2023-04-25T06:07:43;10.55;;;2.55;;
12591;SDS011;6361;52.120;5.108;2023-04-25T06:10:08;10.82;;;2.53;;
12591;SDS011;6361;52.120;5.108;2023-04-25T06:12:34;9.35;;;2.03;;
12591;SDS011;6361;52.120;5.108;2023-04-25T06:14:59;10.02;;;2.13;;
12591;SDS011;6361;52.120;5.108;2023-04-25T06:17:25;9.60;;;2.28;;
12591;SDS011;6361;52.120;5.108;2023-04-25T06:19:50;12.95;;;2.70;;
12591;SDS011;6361;52.120;5.108;2023-04-25T06:22:16;11.63;;;2.15;;
12591;SDS011;6361;52.120;5.108;2023-04-25T06:24:41;6.95;;;1.52;;
12591;SDS011;6361;52.120;5.108;2023-04-25T06:27:07;10.50;;;2.47;;
12591;SDS011;6361;52.120;5.108;2023-04-25T06:29:32;8.85;;;2.28;;
12591;SDS011;6361;52.120;5.108;2023-04-25T06:31:57;12.95;;;2.60;;
12591;SDS011;6361;52.120;5.108;2023-04-25T06:34:23;10.10;;;2.13;;
12591;SDS011;6361;52.120;5.108;2023-04-25T06:36:48;11.40;;;2.17;;
12591;SDS011;6361;52.120;5.108;2023-04-25T06:39:13;9.48;;;2.10;;
12591;SDS011;6361;52.120;5.108;2023-04-25T06:41:39;11.00;;;1.92;;
12591;SDS011;6361;52.120;5.108;2023-04-25T06:44:04;9.52;;;2.30;;
12591;SDS011;6361;52.120;5.108;2023-04-25T06:46:29;12.27;;;2.45;;
12591;SDS011;6361;52.120;5.108;2023-04-25T06:48:55;12.07;;;2.42;;
12591;SDS011;6361;52.120;5.108;2023-04-25T06:51:20;12.05;;;2.80;;
12591;SDS011;6361;52.120;5.108;2023-04-25T06:53:45;7.85;;;2.13;;
12591;SDS011;6361;52.120;5.108;2023-04-25T06:56:11;11.50;;;2.28;;
12591;SDS011;6361;52.120;5.108;2023-04-25T06:58:36;10.32;;;2.45;;
12591;SDS011;6361;52.120;5.108;2023-04-25T07:01:01;11.05;;;2.35;;
12591;SDS011;6361;52.120;5.108;2023-04-25T07:03:27;13.60;;;3.17;;
12591;SDS011;6361;52.120;5.108;2023-04-25T07:05:52;10.88;;;2.10;;
12591;SDS011;6361;52.120;5.108;2023-04-25T07:08:18;10.35;;;2.03;;
12591;SDS011;6361;52.120;5.108;2023-04-25T07:10:43;10.27;;;2.30;;
12591;SDS011;6361;52.120;5.108;2023-04-25T07:13:11;12.30;;;2.22;;
12591;SDS011;6361;52.120;5.108;2023-04-25T07:15:36;14.23;;;2.17;;
12591;SDS011;6361;52.120;5.108;2023-04-25T07:18:01;11.13;;;1.90;;
12591;SDS011;6361;52.120;5.108;2023-04-25T07:20:27;11.85;;;2.47;;
12591;SDS011;6361;52.120;5.108;2023-04-25T07:22:52;10.57;;;2.33;;
12591;SDS011;6361;52.120;5.108;2023-04-25T07:25:18;11.32;;;2.50;;
12591;SDS011;6361;52.120;5.108;2023-04-25T07:27:43;7.63;;;1.40;;
12591;SDS011;6361;52.120;5.108;2023-04-25T07:30:09;4.80;;;1.33;;
12591;SDS011;6361;52.120;5.108;2023-04-25T07:32:35;6.65;;;1.33;;
12591;SDS011;6361;52.120;5.108;2023-04-25T07:35:00;5.38;;;0.90;;
12591;SDS011;6361;52.120;5.108;2023-04-25T07:37:26;4.40;;;0.93;;
12591;SDS011;6361;52.120;5.108;2023-04-25T07:39:52;7.70;;;1.35;;
12591;SDS011;6361;52.120;5.108;2023-04-25T07:42:17;5.65;;;1.00;;
12591;SDS011;6361;52.120;5.108;2023-04-25T07:44:42;5.70;;;1.00;;
12591;SDS011;6361;52.120;5.108;2023-04-25T07:47:08;4.72;;;1.23;;
12591;SDS011;6361;52.120;5.108;2023-04-25T07:49:37;4.50;;;1.10;;
12591;SDS011;6361;52.120;5.108;2023-04-25T07:52:03;7.38;;;1.67;;
12591;SDS011;6361;52.120;5.108;2023-04-25T07:54:30;3.03;;;1.02;;
12591;SDS011;6361;52.120;5.108;2023-04-25T07:56:56;4.15;;;0.93;;
12591;SDS011;6361;52.120;5.108;2023-04-25T07:59:22;3.65;;;1.10;;
12591;SDS011;6361;52.120;5.108;2023-04-25T08:01:47;8.20;;;1.33;;
12591;SDS011;6361;52.120;5.108;2023-04-25T08:04:13;10.05;;;1.33;;
12591;SDS011;6361;52.120;5.108;2023-04-25T08:06:38;6.85;;;1.33;;
12591;SDS011;6361;52.120;5.108;2023-04-25T08:09:05;3.80;;;1.20;;
12591;SDS011;6361;52.120;5.108;2023-04-25T08:11:30;6.43;;;1.40;;
12591;SDS011;6361;52.120;5.108;2023-04-25T08:13:56;9.63;;;1.50;;
12591;SDS011;6361;52.120;5.108;2023-04-25T08:16:21;6.93;;;1.25;;
12591;SDS011;6361;52.120;5.108;2023-04-25T08:18:47;7.25;;;1.42;;
12591;SDS011;6361;52.120;5.108;2023-04-25T08:21:12;8.73;;;1.70;;
12591;SDS011;6361;52.120;5.108;2023-04-25T08:23:38;7.45;;;1.70;;
12591;SDS011;6361;52.120;5.108;2023-04-25T08:26:04;10.20;;;1.70;;
12591;SDS011;6361;52.120;5.108;2023-04-25T08:28:30;8.93;;;1.60;;
12591;SDS011;6361;52.120;5.108;2023-04-25T08:30:55;7.70;;;1.63;;
12591;SDS011;6361;52.120;5.108;2023-04-25T08:33:21;7.70;;;1.77;;
12591;SDS011;6361;52.120;5.108;2023-04-25T08:35:46;8.25;;;1.80;;
12591;SDS011;6361;52.120;5.108;2023-04-25T08:38:11;9.43;;;1.80;;
12591;SDS011;6361;52.120;5.108;2023-04-25T08:40:38;8.90;;;2.10;;
12591;SDS011;6361;52.120;5.108;2023-04-25T08:43:05;7.13;;;1.35;;
12591;SDS011;6361;52.120;5.108;2023-04-25T08:45:36;7.10;;;1.55;;
12591;SDS011;6361;52.120;5.108;2023-04-25T08:48:03;8.25;;;1.60;;
12591;SDS011;6361;52.120;5.108;2023-04-25T08:50:29;10.43;;;1.77;;
12591;SDS011;6361;52.120;5.108;2023-04-25T08:52:55;9.57;;;1.80;;
12591;SDS011;6361;52.120;5.108;2023-04-25T08:55:24;5.65;;;1.60;;
12591;SDS011;6361;52.120;5.108;2023-04-25T08:57:51;7.20;;;1.27;;
12591;SDS011;6361;52.120;5.108;2023-04-25T09:00:17;4.78;;;1.25;;
12591;SDS011;6361;52.120;5.108;2023-04-25T09:02:43;4.68;;;1.30;;
12591;SDS011;6361;52.120;5.108;2023-04-25T09:05:09;6.20;;;1.08;;
12591;SDS011;6361;52.120;5.108;2023-04-25T09:07:37;5.72;;;1.10;;
12591;SDS011;6361;52.120;5.108;2023-04-25T09:10:05;4.10;;;1.00;;
12591;SDS011;6361;52.120;5.108;2023-04-25T09:12:31;7.50;;;1.25;;
12591;SDS011;6361;52.120;5.108;2023-04-25T09:15:07;6.40;;;1.30;;
12591;SDS011;6361;52.120;5.108;2023-04-25T09:17:33;6.65;;;1.17;;
12591;SDS011;6361;52.120;5.108;2023-04-25T09:20:09;3.90;;;1.00;;
12591;SDS011;6361;52.120;5.108;2023-04-25T09:22:36;5.47;;;1.10;;
12591;SDS011;6361;52.120;5.108;2023-04-25T09:25:03;4.47;;;1.10;;
12591;SDS011;6361;52.120;5.108;2023-04-25T09:27:48;7.03;;;1.17;;
12591;SDS011;6361;52.120;5.108;2023-04-25T09:30:16;6.60;;;1.13;;
12591;SDS011;6361;52.120;5.108;2023-04-25T09:32:42;6.07;;;1.15;;
12591;SDS011;6361;52.120;5.108;2023-04-25T09:35:08;5.65;;;1.25;;
12591;SDS011;6361;52.120;5.108;2023-04-25T09:37:34;6.47;;;1.38;;
12591;SDS011;6361;52.120;5.108;2023-04-25T09:40:00;8.15;;;1.38;;
12591;SDS011;6361;52.120;5.108;2023-04-25T09:42:30;8.43;;;1.08;;
12591;SDS011;6361;52.120;5.108;2023-04-25T09:44:57;6.57;;;1.25;;
12591;SDS011;6361;52.120;5.108;2023-04-25T09:47:24;8.07;;;1.25;;
12591;SDS011;6361;52.120;5.108;2023-04-25T09:49:50;8.00;;;1.30;;
12591;SDS011;6361;52.120;5.108;2023-04-25T09:52:20;8.40;;;1.10;;
12591;SDS011;6361;52.120;5.108;2023-04-25T09:54:47;4.72;;;1.30;;
12591;SDS011;6361;52.120;5.108;2023-04-25T09:57:17;6.72;;;1.20;;
12591;SDS011;6361;52.120;5.108;2023-04-25T09:59:48;3.50;;;1.27;;
12591;SDS011;6361;52.120;5.108;2023-04-25T10:02:16;4.72;;;1.10;;
12591;SDS011;6361;52.120;5.108;2023-04-25T10:04:47;5.72;;;1.00;;
12591;SDS011;6361;52.120;5.108;2023-04-25T10:07:16;3.25;;;0.80;;
12591;SDS011;6361;52.120;5.108;2023-04-25T10:09:41;3.78;;;1.30;;
12591;SDS011;6361;52.120;5.108;2023-04-25T10:12:07;6.25;;;1.50;;
12591;SDS011;6361;52.120;5.108;2023-04-25T10:14:34;6.18;;;1.15;;
12591;SDS011;6361;52.120;5.108;2023-04-25T10:17:00;5.25;;;1.23;;
12591;SDS011;6361;52.120;5.108;2023-04-25T10:19:26;5.72;;;1.10;;
12591;SDS011;6361;52.120;5.108;2023-04-25T10:21:54;6.47;;;1.27;;
12591;SDS011;6361;52.120;5.108;2023-04-25T10:24:23;8.40;;;1.48;;
12591;SDS011;6361;52.120;5.108;2023-04-25T10:26:49;5.80;;;1.50;;
12591;SDS011;6361;52.120;5.108;2023-04-25T10:29:22;6.40;;;1.30;;
12591;SDS011;6361;52.120;5.108;2023-04-25T10:31:48;3.45;;;1.00;;
12591;SDS011;6361;52.120;5.108;2023-04-25T10:34:15;7.57;;;1.42;;
12591;SDS011;6361;52.120;5.108;2023-04-25T10:36:41;5.28;;;1.27;;
12591;SDS011;6361;52.120;5.108;2023-04-25T10:39:06;8.65;;;1.65;;
12591;SDS011;6361;52.120;5.108;2023-04-25T10:41:56;6.28;;;1.35;;
12591;SDS011;6361;52.120;5.108;2023-04-25T10:44:22;8.27;;;1.45;;
12591;SDS011;6361;52.120;5.108;2023-04-25T10:46:47;4.80;;;1.38;;
12591;SDS011;6361;52.120;5.108;2023-04-25T10:49:46;9.52;;;1.73;;
12591;SDS011;6361;52.120;5.108;2023-04-25T10:54:51;9.20;;;1.45;;
12591;SDS011;6361;52.120;5.108;2023-04-25T11:00:05;5.05;;;1.30;;
12591;SDS011;6361;52.120;5.108;2023-04-25T11:02:55;5.72;;;1.40;;
12591;SDS011;6361;52.120;5.108;2023-04-25T11:05:31;5.70;;;1.10;;
12591;SDS011;6361;52.120;5.108;2023-04-25T11:07:57;8.45;;;1.45;;
12591;SDS011;6361;52.120;5.108;2023-04-25T11:10:30;5.15;;;1.50;;
12591;SDS011;6361;52.120;5.108;2023-04-25T11:12:57;7.35;;;1.60;;
12591;SDS011;6361;52.120;5.108;2023-04-25T11:15:23;7.05;;;1.30;;
12591;SDS011;6361;52.120;5.108;2023-04-25T11:17:52;8.50;;;1.55;;
12591;SDS011;6361;52.120;5.108;2023-04-25T11:20:17;6.78;;;1.40;;
12591;SDS011;6361;52.120;5.108;2023-04-25T11:22:44;7.13;;;1.40;;
12591;SDS011;6361;52.120;5.108;2023-04-25T11:25:11;6.20;;;1.48;;
12591;SDS011;6361;52.120;5.108;2023-04-25T11:27:58;5.18;;;1.10;;
12591;SDS011;6361;52.120;5.108;2023-04-25T11:30:24;3.85;;;1.38;;
12591;SDS011;6361;52.120;5.108;2023-04-25T11:32:50;5.60;;;1.23;;
12591;SDS011;6361;52.120;5.108;2023-04-25T11:35:18;7.18;;;1.25;;
12591;SDS011;6361;52.120;5.108;2023-04-25T11:37:45;5.63;;;1.20;;
12591;SDS011;6361;52.120;5.108;2023-04-25T11:40:10;9.55;;;1.50;;
12591;SDS011;6361;52.120;5.108;2023-04-25T11:42:37;7.57;;;1.35;;
12591;SDS011;6361;52.120;5.108;2023-04-25T11:45:08;4.55;;;1.13;;
12591;SDS011;6361;52.120;5.108;2023-04-25T11:47:34;4.40;;;1.40;;
12591;SDS011;6361;52.120;5.108;2023-04-25T11:50:04;7.60;;;1.38;;
12591;SDS011;6361;52.120;5.108;2023-04-25T11:52:43;7.25;;;1.33;;
12591;SDS011;6361;52.120;5.108;2023-04-25T11:55:12;6.15;;;1.90;;
12591;SDS011;6361;52.120;5.108;2023-04-25T11:57:42;5.47;;;1.33;;
12591;SDS011;6361;52.120;5.108;2023-04-25T12:00:15;6.05;;;1.45;;
12591;SDS011;6361;52.120;5.108;2023-04-25T12:02:45;7.60;;;1.50;;
12591;SDS011;6361;52.120;5.108;2023-04-25T12:05:13;8.63;;;1.27;;
12591;SDS011;6361;52.120;5.108;2023-04-25T12:07:40;6.15;;;1.35;;
12591;SDS011;6361;52.120;5.108;2023-04-25T12:12:33;8.23;;;1.30;;
12591;SDS011;6361;52.120;5.108;2023-04-25T12:17:54;5.35;;;1.30;;
12591;SDS011;6361;52.120;5.108;2023-04-25T12:20:31;6.47;;;1.35;;
12591;SDS011;6361;52.120;5.108;2023-04-25T12:22:56;5.15;;;1.10;;
12591;SDS011;6361;52.120;5.108;2023-04-25T12:31:18;9.07;;;2.60;;
12591;SDS011;6361;52.120;5.108;2023-04-25T12:33:39;9.02;;;1.50;;
12591;SDS011;6361;52.120;5.108;2023-04-25T12:36:06;5.40;;;1.02;;
12591;SDS011;6361;52.120;5.108;2023-04-25T12:38:37;7.38;;;1.40;;
12591;SDS011;6361;52.120;5.108;2023-04-25T12:41:04;4.40;;;1.27;;
12591;SDS011;6361;52.120;5.108;2023-04-25T12:43:29;5.22;;;1.23;;
12591;SDS011;6361;52.120;5.108;2023-04-25T12:45:55;6.85;;;1.33;;
12591;SDS011;6361;52.120;5.108;2023-04-25T12:48:21;6.85;;;1.25;;
12591;SDS011;6361;52.120;5.108;2023-04-25T12:50:47;6.03;;;1.33;;
12591;SDS011;6361;52.120;5.108;2023-04-25T12:53:14;7.05;;;1.77;;
12591;SDS011;6361;52.120;5.108;2023-04-25T12:55:40;7.90;;;1.55;;
12591;SDS011;6361;52.120;5.108;2023-04-25T12:58:06;4.75;;;1.30;;
12591;SDS011;6361;52.120;5.108;2023-04-25T13:00:31;7.30;;;1.67;;
12591;SDS011;6361;52.120;5.108;2023-04-25T13:02:57;4.43;;;1.42;;
12591;SDS011;6361;52.120;5.108;2023-04-25T13:05:22;4.70;;;1.27;;
12591;SDS011;6361;52.120;5.108;2023-04-25T13:07:47;10.60;;;1.50;;
12591;SDS011;6361;52.120;5.108;2023-04-25T13:10:13;6.55;;;1.30;;
12591;SDS011;6361;52.120;5.108;2023-04-25T13:12:38;3.90;;;1.40;;
12591;SDS011;6361;52.120;5.108;2023-04-25T13:15:04;3.63;;;1.00;;
12591;SDS011;6361;52.120;5.108;2023-04-25T13:17:30;4.35;;;1.30;;
12591;SDS011;6361;52.120;5.108;2023-04-25T13:19:55;5.57;;;1.08;;
12591;SDS011;6361;52.120;5.108;2023-04-25T13:22:20;6.22;;;2.10;;
12591;SDS011;6361;52.120;5.108;2023-04-25T13:24:46;4.07;;;1.13;;
12591;SDS011;6361;52.120;5.108;2023-04-25T13:27:11;4.90;;;1.27;;
12591;SDS011;6361;52.120;5.108;2023-04-25T13:29:37;4.38;;;1.23;;
12591;SDS011;6361;52.120;5.108;2023-04-25T13:32:05;6.63;;;1.38;;
12591;SDS011;6361;52.120;5.108;2023-04-25T13:34:30;4.57;;;1.20;;
12591;SDS011;6361;52.120;5.108;2023-04-25T13:36:56;4.88;;;1.50;;
12591;SDS011;6361;52.120;5.108;2023-04-25T13:39:21;4.90;;;1.35;;
12591;SDS011;6361;52.120;5.108;2023-04-25T13:41:46;8.30;;;1.23;;
12591;SDS011;6361;52.120;5.108;2023-04-25T13:44:12;8.75;;;1.52;;
12591;SDS011;6361;52.120;5.108;2023-04-25T13:46:37;5.32;;;1.42;;
12591;SDS011;6361;52.120;5.108;2023-04-25T13:49:03;7.47;;;1.42;;
12591;SDS011;6361;52.120;5.108;2023-04-25T13:51:29;9.38;;;1.95;;
12591;SDS011;6361;52.120;5.108;2023-04-25T13:53:55;5.97;;;1.30;;
12591;SDS011;6361;52.120;5.108;2023-04-25T13:56:21;6.97;;;1.55;;
12591;SDS011;6361;52.120;5.108;2023-04-25T13:58:47;7.10;;;1.40;;
12591;SDS011;6361;52.120;5.108;2023-04-25T14:01:12;6.35;;;1.50;;
12591;SDS011;6361;52.120;5.108;2023-04-25T14:03:38;4.75;;;1.50;;
12591;SDS011;6361;52.120;5.108;2023-04-25T14:06:04;5.78;;;1.90;;
12591;SDS011;6361;52.120;5.108;2023-04-25T14:08:29;6.35;;;1.63;;
12591;SDS011;6361;52.120;5.108;2023-04-25T14:10:54;5.88;;;1.58;;
12591;SDS011;6361;52.120;5.108;2023-04-25T14:13:20;5.15;;;1.60;;
12591;SDS011;6361;52.120;5.108;2023-04-25T14:15:45;7.35;;;1.60;;
12591;SDS011;6361;52.120;5.108;2023-04-25T14:18:11;6.30;;;1.50;;
12591;SDS011;6361;52.120;5.108;2023-04-25T14:20:36;8.25;;;1.80;;
12591;SDS011;6361;52.120;5.108;2023-04-25T14:23:01;5.60;;;1.55;;
12591;SDS011;6361;52.120;5.108;2023-04-25T14:25:27;5.22;;;1.42;;
12591;SDS011;6361;52.120;5.108;2023-04-25T14:27:54;5.07;;;1.50;;
12591;SDS011;6361;52.120;5.108;2023-04-25T14:30:20;6.60;;;1.27;;
12591;SDS011;6361;52.120;5.108;2023-04-25T14:32:47;7.78;;;1.60;;
12591;SDS011;6361;52.120;5.108;2023-04-25T14:35:13;7.07;;;1.25;;
12591;SDS011;6361;52.120;5.108;2023-04-25T14:37:39;9.45;;;1.65;;
12591;SDS011;6361;52.120;5.108;2023-04-25T14:40:05;6.47;;;1.40;;
12591;SDS011;6361;52.120;5.108;2023-04-25T14:42:32;6.65;;;1.33;;
12591;SDS011;6361;52.120;5.108;2023-04-25T14:44:59;5.75;;;1.52;;
12591;SDS011;6361;52.120;5.108;2023-04-25T14:47:24;7.10;;;1.45;;
12591;SDS011;6361;52.120;5.108;2023-04-25T14:49:49;5.93;;;1.48;;
12591;SDS011;6361;52.120;5.108;2023-04-25T14:52:19;4.28;;;1.40;;
12591;SDS011;6361;52.120;5.108;2023-04-25T14:54:45;4.60;;;1.15;;
12591;SDS011;6361;52.120;5.108;2023-04-25T14:57:10;5.03;;;1.60;;
12591;SDS011;6361;52.120;5.108;2023-04-25T14:59:36;6.60;;;1.35;;
12591;SDS011;6361;52.120;5.108;2023-04-25T15:02:01;7.50;;;1.48;;
12591;SDS011;6361;52.120;5.108;2023-04-25T15:04:27;6.40;;;1.60;;
12591;SDS011;6361;52.120;5.108;2023-04-25T15:06:52;10.82;;;1.60;;